createdAt,value
2023-03-22T00:02:05.154Z,83.61
2023-03-22T00:04:26.591Z,83.33
2023-03-22T00:06:48.066Z,82.34
2023-03-22T00:09:09.507Z,80.77
2023-03-22T00:11:30.958Z,81.82
2023-03-22T00:13:53.678Z,82.10
2023-03-22T00:16:15.691Z,81.98
2023-03-22T00:18:37.677Z,82.14
2023-03-22T00:20:59.736Z,82.55
2023-03-22T00:23:22.244Z,83.13
2023-03-22T00:25:47.373Z,82.36
2023-03-22T00:28:08.825Z,82.60
2023-03-22T00:30:30.437Z,83.60
2023-03-22T00:32:51.896Z,83.23
2023-03-22T00:35:13.357Z,83.97
2023-03-22T00:37:38.721Z,83.44
2023-03-22T00:40:01.291Z,84.60
2023-03-22T00:42:22.771Z,84.15
2023-03-22T00:44:44.229Z,84.31
2023-03-22T00:47:05.905Z,84.63
2023-03-22T00:49:27.401Z,84.96
2023-03-22T00:51:49.012Z,85.11
2023-03-22T00:54:10.669Z,84.57
2023-03-22T00:56:34.012Z,85.31
2023-03-22T00:58:55.784Z,83.93
2023-03-22T01:01:17.490Z,84.60
2023-03-22T01:03:39.363Z,85.22
2023-03-22T01:06:01.131Z,85.16
2023-03-22T01:08:23.929Z,86.00
2023-03-22T01:10:45.477Z,84.82
2023-03-22T01:13:08.166Z,85.98
2023-03-22T01:15:29.895Z,85.26
2023-03-22T01:17:51.973Z,87.29
2023-03-22T01:20:13.736Z,86.57
2023-03-22T01:22:35.485Z,85.79
2023-03-22T01:24:57.025Z,85.40
2023-03-22T01:27:18.548Z,85.60
2023-03-22T01:29:40.210Z,84.88
2023-03-22T01:32:01.725Z,84.49
2023-03-22T01:34:23.223Z,84.24
2023-03-22T01:36:44.953Z,84.22
2023-03-22T01:39:06.905Z,84.81
2023-03-22T01:41:28.489Z,84.03
2023-03-22T01:44:16.405Z,83.95
2023-03-22T01:46:38.720Z,83.62
2023-03-22T01:49:02.596Z,83.91
2023-03-22T01:51:27.726Z,83.34
2023-03-22T01:53:53.493Z,82.91
2023-03-22T01:56:16.361Z,82.59
2023-03-22T01:58:38.798Z,82.22
2023-03-22T02:01:00.625Z,82.60
2023-03-22T02:03:37.952Z,82.67
2023-03-22T02:06:00.174Z,82.98
2023-03-22T02:08:21.813Z,82.82
2023-03-22T02:10:43.435Z,81.98
2023-03-22T02:13:29.769Z,82.49
2023-03-22T02:16:12.803Z,82.42
2023-03-22T02:18:43.280Z,82.34
2023-03-22T02:21:35.710Z,82.19
2023-03-22T02:24:35.000Z,82.83
2023-03-22T02:27:18.541Z,83.13
2023-03-22T02:30:14.816Z,83.05
2023-03-22T02:33:17.569Z,83.15
2023-03-22T02:35:52.452Z,83.21
2023-03-22T02:38:43.341Z,83.52
2023-03-22T02:41:18.488Z,83.57
2023-03-22T02:43:52.184Z,83.48
2023-03-22T02:46:30.653Z,83.65
2023-03-22T02:49:26.435Z,82.57
2023-03-22T02:51:59.987Z,83.24
2023-03-22T02:54:35.371Z,82.41
2023-03-22T02:57:15.812Z,82.96
2023-03-22T02:59:41.014Z,84.07
2023-03-22T03:02:03.806Z,84.39
2023-03-22T03:04:31.095Z,84.29
2023-03-22T03:06:57.378Z,86.12
2023-03-22T03:09:20.652Z,85.37
2023-03-22T03:11:42.244Z,85.62
2023-03-22T03:14:03.704Z,86.82
2023-03-22T03:16:29.437Z,86.57
2023-03-22T03:18:58.063Z,87.19
2023-03-22T03:21:25.443Z,86.73
2023-03-22T03:24:11.451Z,85.87
2023-03-22T03:26:54.450Z,86.55
2023-03-22T03:29:43.160Z,85.81
2023-03-22T03:32:09.954Z,85.69
2023-03-22T03:34:57.896Z,85.27
2023-03-22T03:37:24.739Z,86.29
2023-03-22T03:39:54.323Z,85.85
2023-03-22T03:42:17.718Z,85.91
2023-03-22T03:44:39.807Z,87.33
2023-03-22T03:47:02.192Z,86.98
2023-03-22T03:49:23.864Z,89.70
2023-03-22T03:51:48.388Z,89.92
2023-03-22T03:54:09.880Z,90.80
2023-03-22T03:56:31.370Z,89.37
2023-03-22T03:58:52.845Z,89.10
2023-03-22T04:01:15.993Z,89.33
2023-03-22T04:03:37.854Z,90.84
2023-03-22T04:05:59.811Z,90.19
2023-03-22T04:08:21.434Z,90.26
2023-03-22T04:10:42.907Z,90.19
2023-03-22T04:13:04.443Z,89.63
2023-03-22T04:15:25.898Z,89.49
2023-03-22T04:17:47.443Z,90.30
2023-03-22T04:20:11.987Z,89.46
2023-03-22T04:22:38.463Z,89.19
2023-03-22T04:25:01.415Z,90.88
2023-03-22T04:27:22.934Z,89.83
2023-03-22T04:29:51.363Z,89.57
2023-03-22T04:32:12.871Z,89.79
2023-03-22T04:34:34.344Z,90.57
2023-03-22T04:36:55.774Z,90.63
2023-03-22T04:39:17.228Z,90.11
2023-03-22T04:41:39.797Z,89.72
2023-03-22T04:44:04.152Z,90.60
2023-03-22T04:46:25.803Z,90.25
2023-03-22T04:48:47.296Z,90.20
2023-03-22T04:51:11.053Z,90.28
2023-03-22T04:53:32.889Z,89.85
2023-03-22T04:55:57.128Z,89.16
2023-03-22T04:58:22.171Z,89.37
2023-03-22T05:00:43.620Z,89.01
2023-03-22T05:03:05.847Z,88.73
2023-03-22T05:05:27.338Z,88.61
2023-03-22T05:07:48.914Z,88.19
2023-03-22T05:10:10.818Z,88.02
2023-03-22T05:12:32.350Z,87.93
2023-03-22T05:14:53.806Z,87.27
2023-03-22T05:17:15.374Z,87.52
2023-03-22T05:19:36.920Z,87.24
2023-03-22T05:22:01.959Z,87.33
2023-03-22T05:24:23.661Z,86.86
2023-03-22T05:26:45.133Z,86.57
2023-03-22T05:29:06.903Z,86.38
2023-03-22T05:31:28.672Z,86.06
2023-03-22T05:33:54.360Z,86.57
2023-03-22T05:36:17.070Z,86.52
2023-03-22T05:38:38.649Z,86.12
2023-03-22T05:41:00.415Z,86.17
2023-03-22T05:43:21.906Z,85.72
2023-03-22T05:45:43.420Z,85.51
2023-03-22T05:48:05.485Z,85.72
2023-03-22T05:50:27.468Z,85.30
2023-03-22T05:52:49.578Z,85.86
2023-03-22T05:55:12.651Z,85.41
2023-03-22T05:57:34.180Z,85.33
2023-03-22T05:59:57.132Z,84.75
2023-03-22T06:02:18.716Z,84.39
2023-03-22T06:04:41.667Z,83.48
2023-03-22T06:07:03.222Z,84.05
2023-03-22T06:09:24.754Z,84.08
2023-03-22T06:11:46.253Z,84.14
2023-03-22T06:14:07.807Z,84.15
2023-03-22T06:16:29.310Z,84.58
2023-03-22T06:18:50.885Z,84.34
2023-03-22T06:21:12.332Z,84.59
2023-03-22T06:23:33.835Z,84.83
2023-03-22T06:25:55.452Z,84.94
2023-03-22T06:28:17.033Z,84.33
2023-03-22T06:30:38.940Z,84.46
2023-03-22T06:33:04.367Z,84.23
2023-03-22T06:35:26.286Z,84.81
2023-03-22T06:37:47.764Z,84.33
2023-03-22T06:40:10.038Z,84.10
2023-03-22T06:42:31.606Z,84.94
2023-03-22T06:44:53.036Z,85.00
2023-03-22T06:47:14.494Z,84.51
2023-03-22T06:49:35.994Z,84.53
2023-03-22T06:51:57.527Z,84.87
2023-03-22T06:54:19.141Z,85.30
2023-03-22T06:56:40.636Z,86.75
2023-03-22T06:59:02.172Z,89.26
2023-03-22T07:01:24.802Z,89.88
2023-03-22T07:03:46.469Z,92.44
2023-03-22T07:06:08.799Z,91.97
2023-03-22T07:08:30.580Z,93.52
2023-03-22T07:10:52.078Z,92.30
2023-03-22T07:13:13.539Z,90.92
2023-03-22T07:15:35.167Z,91.64
2023-03-22T07:17:56.792Z,90.21
2023-03-22T07:20:19.777Z,88.47
2023-03-22T07:22:41.297Z,88.75
2023-03-22T07:25:02.845Z,88.58
2023-03-22T07:27:24.642Z,88.47
2023-03-22T07:29:46.358Z,88.15
2023-03-22T07:32:07.902Z,87.31
2023-03-22T07:34:29.410Z,86.51
2023-03-22T07:36:51.070Z,85.95
2023-03-22T07:39:12.549Z,87.82
2023-03-22T07:41:34.076Z,88.42
2023-03-22T07:44:07.633Z,86.94
2023-03-22T07:46:32.897Z,86.85
2023-03-22T07:48:54.430Z,87.09
2023-03-22T07:51:15.995Z,86.89
2023-03-22T07:53:37.465Z,85.98
2023-03-22T07:55:58.917Z,85.14
2023-03-22T07:58:20.575Z,83.91
2023-03-22T08:00:42.073Z,83.85
2023-03-22T08:03:03.583Z,84.44
2023-03-22T08:05:25.568Z,83.69
2023-03-22T08:07:47.128Z,81.64
2023-03-22T08:10:09.140Z,80.00
2023-03-22T08:12:32.411Z,78.55
2023-03-22T08:14:53.964Z,78.45
2023-03-22T08:17:16.050Z,75.09
2023-03-22T08:19:37.539Z,74.30
2023-03-22T08:21:59.699Z,74.56
2023-03-22T08:24:21.429Z,75.08
2023-03-22T08:26:45.611Z,75.55
2023-03-22T08:29:07.560Z,73.95
2023-03-22T08:31:29.465Z,74.95
2023-03-22T08:33:51.073Z,71.41
2023-03-22T08:36:16.421Z,71.23
2023-03-22T08:38:37.970Z,69.34
2023-03-22T08:40:59.452Z,67.16
2023-03-22T08:43:20.938Z,69.16
2023-03-22T08:45:42.995Z,68.73
2023-03-22T08:48:04.897Z,69.47
2023-03-22T08:50:26.484Z,67.79
2023-03-22T08:52:47.911Z,67.44
2023-03-22T08:55:09.893Z,69.19
2023-03-22T08:57:31.593Z,69.29
2023-03-22T08:59:57.675Z,70.01
2023-03-22T09:02:19.845Z,69.78
2023-03-22T09:04:41.300Z,69.24
2023-03-22T09:07:03.013Z,68.12
2023-03-22T09:09:24.498Z,69.15
2023-03-22T09:11:46.298Z,70.41
2023-03-22T09:14:07.779Z,68.72
2023-03-22T09:16:29.248Z,69.59
2023-03-22T09:18:50.828Z,68.36
2023-03-22T09:21:12.576Z,69.79
2023-03-22T09:23:35.532Z,67.44
2023-03-22T09:26:03.924Z,69.31
2023-03-22T09:28:25.518Z,69.04
2023-03-22T09:30:47.428Z,68.03
2023-03-22T09:33:09.339Z,64.67
2023-03-22T09:35:32.111Z,63.53
2023-03-22T09:37:54.656Z,65.30
2023-03-22T09:40:17.755Z,62.96
2023-03-22T09:42:44.385Z,66.96
2023-03-22T09:45:12.802Z,65.33
2023-03-22T09:47:45.083Z,65.74
2023-03-22T09:50:14.082Z,65.97
2023-03-22T09:52:35.761Z,67.67
2023-03-22T09:54:58.954Z,65.58
2023-03-22T09:57:29.165Z,64.80
2023-03-22T09:59:57.034Z,65.05
2023-03-22T10:02:34.541Z,62.24
2023-03-22T10:05:12.694Z,65.35
2023-03-22T10:07:49.277Z,68.44
2023-03-22T10:10:24.598Z,64.63
2023-03-22T10:13:15.271Z,60.24
2023-03-22T10:15:43.244Z,61.90
2023-03-22T10:18:11.698Z,60.75
2023-03-22T10:20:59.803Z,60.50
2023-03-22T10:23:37.936Z,61.53
2023-03-22T10:26:01.274Z,61.67
2023-03-22T10:28:29.967Z,60.56
2023-03-22T10:30:55.384Z,60.80
2023-03-22T10:33:28.445Z,60.24
2023-03-22T10:35:52.614Z,60.94
2023-03-22T10:38:23.448Z,60.16
2023-03-22T10:40:46.445Z,58.44
2023-03-22T10:43:34.825Z,59.89
2023-03-22T10:45:58.579Z,55.23
2023-03-22T10:48:33.110Z,57.01
2023-03-22T10:50:56.405Z,54.89
2023-03-22T10:53:29.446Z,56.75
2023-03-22T10:55:51.348Z,56.52
2023-03-22T10:58:17.224Z,56.30
2023-03-22T11:00:43.368Z,54.41
2023-03-22T11:03:06.372Z,53.50
2023-03-22T11:05:29.902Z,54.12
2023-03-22T11:07:51.584Z,56.59
2023-03-22T11:10:21.804Z,54.03
2023-03-22T11:12:56.596Z,53.26
2023-03-22T11:15:28.845Z,55.23
2023-03-22T11:17:50.964Z,54.52
2023-03-22T11:20:17.086Z,54.56
2023-03-22T11:22:41.349Z,53.88
2023-03-22T11:25:07.063Z,54.90
2023-03-22T11:27:31.240Z,55.39
2023-03-22T11:29:57.258Z,56.09
2023-03-22T11:32:37.678Z,56.52
2023-03-22T11:35:11.560Z,56.08
2023-03-22T11:37:33.342Z,55.58
2023-03-22T11:40:01.727Z,53.91
2023-03-22T11:42:23.294Z,53.84
2023-03-22T11:44:44.933Z,55.93
2023-03-22T11:47:08.788Z,52.91
2023-03-22T11:49:46.341Z,53.66
2023-03-22T11:52:16.312Z,53.15
2023-03-22T11:54:39.635Z,52.90
2023-03-22T11:57:05.081Z,51.40
2023-03-22T11:59:36.878Z,50.85
2023-03-22T12:02:06.562Z,52.67
2023-03-22T12:04:31.329Z,52.19
2023-03-22T12:06:56.671Z,52.03
2023-03-22T12:09:46.333Z,53.79
2023-03-22T12:12:23.043Z,52.17
2023-03-22T12:15:07.756Z,51.08
2023-03-22T12:17:33.952Z,50.01
2023-03-22T12:20:07.007Z,50.32
2023-03-22T12:22:32.652Z,49.84
2023-03-22T12:24:54.196Z,49.10
2023-03-22T12:27:26.885Z,50.10
2023-03-22T12:29:54.820Z,48.93
2023-03-22T12:32:21.963Z,48.24
2023-03-22T12:34:48.167Z,49.82
2023-03-22T12:37:17.694Z,48.29
2023-03-22T12:39:46.207Z,47.61
2023-03-22T12:42:23.259Z,46.87
2023-03-22T12:44:55.567Z,47.34
2023-03-22T12:47:38.436Z,47.72
2023-03-22T12:50:23.628Z,47.65
2023-03-22T12:52:51.045Z,48.76
2023-03-22T12:55:23.714Z,49.59
2023-03-22T12:57:51.220Z,49.35
2023-03-22T13:00:16.013Z,49.59
2023-03-22T13:02:38.107Z,51.53
2023-03-22T13:05:02.082Z,49.98
2023-03-22T13:07:37.747Z,50.02
2023-03-22T13:10:01.178Z,50.58
2023-03-22T13:12:22.993Z,50.80
2023-03-22T13:14:56.155Z,50.77
2023-03-22T13:17:23.780Z,51.13
2023-03-22T13:20:07.801Z,52.17
2023-03-22T13:22:50.992Z,51.90
2023-03-22T13:25:17.164Z,50.67
2023-03-22T13:27:54.055Z,50.12
2023-03-22T13:30:22.159Z,50.42
2023-03-22T13:33:21.296Z,50.67
2023-03-22T13:35:51.200Z,50.37
2023-03-22T13:38:21.895Z,50.27
2023-03-22T13:40:52.037Z,49.98
2023-03-22T13:43:25.261Z,50.05
2023-03-22T13:46:11.314Z,49.56
2023-03-22T13:48:48.505Z,50.40
2023-03-22T13:51:14.363Z,49.33
2023-03-22T13:53:37.386Z,50.26
2023-03-22T13:56:03.710Z,49.54
2023-03-22T13:58:45.321Z,50.87
2023-03-22T14:01:16.046Z,49.22
2023-03-22T14:03:42.782Z,49.67
2023-03-22T14:06:23.385Z,48.62
2023-03-22T14:08:47.243Z,47.13
2023-03-22T14:11:26.562Z,48.35
2023-03-22T14:13:52.007Z,48.57
2023-03-22T14:16:35.364Z,48.04
2023-03-22T14:18:57.542Z,48.03
2023-03-22T14:21:25.527Z,48.80
